Latest Coastal Weather Observations for Mandora

IDW60701

Issued at 3:03 pm WST Sunday 28 August 2016 (issued every 10 minutes, with the page automatically refreshed every 10 minutes)

About coastal observations | Map of coastal stations | Coastal observations for WA | Marine services | Other Formats
Station Details ID: 004019 Name: MANDORA Lat: -19.74 Lon: 120.84 Height: 7.5 m
Data from the previous 72 hours. | See also: Recent months at Mandora
Date/Time
WST
Temp
°C
Wind Pressure Rain since
9am
mm
Weather Cloud Vis
km
Sea
Height
m
Swell
Dir  Spd
kts
Gust
kts
hPa Trend Height
m
Period
s
Dir
28/03:00pm 25.9 W 10 14 1011.0 - 0.2 - - - - - - -
28/02:30pm 26.7 W 10 14 1011.0 - 0.2 - - - - - - -
28/02:00pm 27.0 WNW 10 13 1010.9 - 0.2 - - - - - - -
28/01:30pm 27.4 WNW 9 12 1010.9 - 0.2 - - - - - - -
28/01:00pm 28.0 WNW 9 13 1011.5 - 0.2 - - - - - - -
28/12:30pm 27.7 NW 9 14 1011.8 - 0.2 - - - - - - -
28/12:00pm 27.7 WNW 10 14 1012.1 - 0.2 Recent precip. - - - - - -
28/11:30am 28.1 WNW 8 13 1012.5 - 0.2 - - - - - - -
28/11:00am 27.3 WNW 8 14 1012.7 - 0.0 - - - - - - -
28/10:30am 28.3 WNW 9 13 1013.4 - 0.0 - - - - - - -
28/10:00am 27.5 WNW 9 12 1013.8 - 0.0 - - - - - - -
28/09:30am 26.7 W 9 12 1013.9 - 0.0 - - - - - - -
28/09:00am 26.2 W 9 14 1013.9 - 0.0 - - - - - - -
28/08:30am 24.8 W 9 14 1014.0 - 0.0 - - - - - - -
28/08:00am 22.8 W 5 8 1013.7 - 0.0 - - - - - - -
28/07:30am 21.7 WSW 5 7 1013.6 - 0.0 - - - - - - -
28/07:00am 19.8 WSW 5 7 1013.3 - 0.0 - - - - - - -
28/06:30am 19.0 WSW 5 6 1012.9 - 0.0 - - - - - - -
28/06:00am 19.5 WSW 5 6 1012.9 - 0.0 - - - - - - -
28/05:30am 20.3 W 5 6 1012.3 - 0.0 - - - - - - -
28/05:00am 20.6 W 4 5 1012.1 - 0.0 - - - - - - -
28/04:30am 20.9 W 5 6 1011.8 - 0.0 - - - - - - -
28/04:00am 20.4 N 3 5 1011.5 - 0.0 - - - - - - -
28/03:30am 19.0 CALM 0 3 1011.6 - 0.0 - - - - - - -
28/03:00am 19.3 CALM 0 3 1011.8 - 0.0 - - - - - - -
28/02:30am 19.9 N 3 4 1011.8 - 0.0 - - - - - - -
28/02:00am 20.1 N 6 7 1011.6 - 0.0 - - - - - - -
28/01:30am 20.1 N 5 6 1012.0 - 0.0 - - - - - - -
28/01:00am 20.5 N 6 8 1012.0 - 0.0 - - - - - - -
28/12:30am 20.9 NNE 7 8 1012.2 - 0.0 - - - - - - -
28/12:00am 22.0 N 6 8 1012.8 - 0.0 - - - - - - -
 
Date/Time
WST
Temp
°C
Wind Pressure Rain since
9am
mm
Weather Cloud Vis
km
Sea
Height
m
Swell
Dir  Spd
kts
Gust
kts
hPa Trend Height
m
Period
s
Dir
27/11:30pm 22.3 N 5 7 1013.2 - 0.0 - - - - - - -
27/11:00pm 21.9 N 4 5 1013.5 - 0.0 - - - - - - -
27/10:30pm 21.8 N 3 4 1013.7 - 0.0 - - - - - - -
27/10:00pm 21.4 NNW 3 4 1013.7 - 0.0 - - - - - - -
27/09:30pm 21.1 NNW 3 4 1013.7 - 0.0 - - - - - - -
27/09:00pm 20.6 NNW 4 5 1013.8 - 0.0 - - - - - - -
27/08:30pm 20.3 NNW 4 4 1013.8 - 0.0 - - - - - - -
27/08:00pm 20.3 N 4 5 1013.7 - 0.0 - - - - - - -
27/07:30pm 20.4 N 4 5 1013.3 - 0.0 - - - - - - -
27/07:00pm 20.6 N 3 4 1012.8 - 0.0 - - - - - - -
27/06:30pm 21.0 N 5 6 1012.8 - 0.0 - - - - - - -
27/06:00pm 22.3 NW 4 5 1012.7 - 0.0 - - - - - - -
27/05:30pm 24.0 WNW 6 9 1012.4 - 0.0 - - - - - - -
27/05:00pm 25.2 WNW 7 10 1012.5 - 0.0 - - - - - - -
27/04:30pm 25.6 WNW 9 13 1012.0 - 0.0 - - - - - - -
27/04:00pm 26.2 WNW 9 14 1011.9 - 0.0 - - - - - - -
27/03:30pm 26.9 WNW 9 15 1011.6 - 0.0 - - - - - - -
27/03:00pm 26.8 NW 10 15 1011.6 - 0.0 - - - - - - -
27/02:30pm 27.7 NW 9 12 1011.7 - 0.0 - - - - - - -
27/02:00pm 27.9 NW 9 13 1012.3 - 0.0 - - - - - - -
27/01:30pm 28.9 NW 9 14 1012.6 - 0.0 - - - - - - -
27/01:00pm 29.0 NW 9 15 1013.0 - 0.0 - - - - - - -
27/12:30pm 29.2 WNW 11 16 1013.1 - 0.0 - - - - - - -
27/12:00pm 28.9 WNW 11 16 1013.4 - 0.0 - - - - - - -
27/11:30am 29.8 WNW 11 15 1013.9 - 0.0 - - - - - - -
27/11:00am 30.6 WNW 9 16 1014.2 - 0.0 - - - - - - -
27/10:30am 29.9 W 9 13 1014.1 - 0.0 - - - - - - -
27/10:00am 28.8 W 9 13 1014.4 - 0.0 - - - - - - -
27/09:30am 26.8 W 9 13 1014.7 - 0.0 - - - - - - -
27/09:00am 24.9 WNW 8 10 1014.9 - 0.0 - - - - - - -
27/08:30am 22.9 WNW 4 6 1014.9 - 0.0 - - - - - - -
27/08:00am 20.4 CALM 0 3 1014.9 - 0.0 - - - - - - -
27/07:30am 16.3 E 2 4 1014.8 - 0.0 - - - - - - -
27/07:00am 12.3 E 2 5 1014.2 - 0.0 - - - - - - -
27/06:30am 10.4 ENE 4 6 1014.1 - 0.0 - - - - - - -
27/06:00am 9.7 S 5 10 1013.1 - 0.0 - - - - - - -
27/05:30am 9.1 SSE 4 5 1012.7 - 0.0 - - - - - - -
27/05:00am 10.0 SE 5 6 1012.2 - 0.0 - - - - - - -
27/04:30am 10.7 S 5 6 1011.7 - 0.0 - - - - - - -
27/04:00am 11.1 SE 4 5 1011.7 - 0.0 - - - - - - -
27/03:30am 12.3 ESE 4 6 1011.7 - 0.0 - - - - - - -
27/03:00am 11.5 SSE 5 6 1011.6 - 0.0 - - - - - - -
27/02:30am 13.1 ESE 4 5 1011.8 - 0.0 - - - - - - -
27/02:00am 13.8 SSE 5 6 1012.2 - 0.0 - - - - - - -
27/01:30am 16.0 S 6 6 1012.5 - 0.0 - - - - - - -
27/01:00am 16.5 S 7 7 1012.8 - 0.0 - - - - - - -
27/12:30am 16.8 S 6 8 1013.3 - 0.0 - - - - - - -
27/12:00am 17.4 S 7 8 1013.3 - 0.0 - - - - - - -
 
Date/Time
WST
Temp
°C
Wind Pressure Rain since
9am
mm
Weather Cloud Vis
km
Sea
Height
m
Swell
Dir  Spd
kts
Gust
kts
hPa Trend Height
m
Period
s
Dir
26/11:30pm 17.1 S 7 9 1013.5 - 0.0 - - - - - - -
26/11:00pm 15.3 S 5 7 1013.7 - 0.0 - - - - - - -
26/10:30pm 16.2 SSW 6 6 1013.7 - 0.0 - - - - - - -
26/10:00pm 17.3 SSW 6 7 1013.8 - 0.0 - - - - - - -
26/09:30pm 17.9 SSW 6 7 1013.6 - 0.0 - - - - - - -
26/09:00pm 18.7 SSW 7 8 1013.5 - 0.0 - - - - - - -
26/08:30pm 18.0 SW 7 8 1013.5 - 0.0 - - - - - - -
26/08:00pm 18.6 SW 6 7 1013.6 - 0.0 - - - - - - -
26/07:30pm 19.3 SW 6 8 1013.4 - 0.0 - - - - - - -
26/07:00pm 20.1 WSW 5 6 1013.1 - 0.0 - - - - - - -
26/06:30pm 21.2 W 5 6 1012.8 - 0.0 - - - - - - -
26/06:00pm 23.0 W 4 5 1012.5 - 0.0 - - - - - - -
26/05:30pm 25.9 NW 4 6 1012.3 - 0.0 - - - - - - -
26/05:00pm 28.0 NNW 6 8 1012.1 - 0.0 - - - - - - -
26/04:30pm 29.5 NNW 7 9 1011.9 - 0.0 - - - - - - -
26/04:00pm 30.2 N 7 9 1011.7 - 0.0 - - - - - - -
26/03:30pm 31.0 N 7 11 1011.6 - 0.0 - - - - - - -
26/03:00pm 31.8 E 6 11 1011.7 - 0.0 - - - - - - -
26/02:30pm 31.8 SE 5 8 1011.9 - 0.0 - - - - - - -
26/02:00pm 32.3 E 5 12 1012.3 - 0.0 - - - - - - -
26/01:30pm 31.2 E 7 14 1013.0 - 0.0 - - - - - - -
26/01:00pm 31.5 E 8 13 1013.5 - 0.0 - - - - - - -
26/12:30pm 30.4 E 10 17 1014.0 - 0.0 - - - - - - -
26/12:00pm 30.1 E 10 18 1014.6 - 0.0 - - - - - - -
26/11:30am 29.0 E 11 18 1015.0 - 0.0 - - - - - - -
26/11:00am 28.1 ESE 11 21 1015.7 - 0.0 - - - - - - -
26/10:30am 26.7 E 13 21 1016.4 - 0.0 - - - - - - -
26/10:00am 26.4 E 13 21 1016.5 - 0.0 - - - - - - -
26/09:30am 24.9 E 14 23 1016.8 - 0.0 - - - - - - -
26/09:00am 23.9 ESE 13 24 1016.8 - 0.0 - - - - - - -
26/08:30am 22.4 ESE 13 22 1016.7 - 0.0 - - - - - - -
26/08:00am 20.2 ESE 13 22 1016.5 - 0.0 - - - - - - -
26/07:30am 18.6 ESE 10 17 1016.6 - 0.0 - - - - - - -
26/07:00am 16.6 ESE 8 13 1016.3 - 0.0 - - - - - - -
26/06:30am 15.0 SE 7 11 1015.7 - 0.0 - - - - - - -
26/06:00am 15.1 SE 7 11 1015.4 - 0.0 - - - - - - -
26/05:30am 15.6 SE 7 11 1015.0 - 0.0 - - - - - - -
26/05:00am 16.4 SE 8 11 1014.8 - 0.0 - - - - - - -
26/04:30am 17.0 SE 9 13 1014.4 - 0.0 - - - - - - -
26/04:00am 16.6 SE 8 13 1014.1 - 0.0 - - - - - - -
26/03:30am 16.3 SE 7 11 1014.0 - 0.0 - - - - - - -
26/03:00am 17.0 SE 8 12 1014.1 - 0.0 - - - - - - -
26/02:30am 18.0 SE 10 15 1014.2 - 0.0 - - - - - - -
26/02:00am 18.8 SE 10 16 1014.3 - 0.0 - - - - - - -
26/01:30am 19.1 SE 9 14 1014.3 - 0.0 - - - - - - -
26/01:00am 19.0 SE 9 16 1014.6 - 0.0 - - - - - - -
26/12:30am 18.6 SE 7 12 1014.9 - 0.0 - - - - - - -
26/12:00am 18.9 SE 8 11 1015.2 - 0.0 - - - - - - -
 
Date/Time
WST
Temp
°C
Wind Pressure Rain since
9am
mm
Weather Cloud Vis
km
Sea
Height
m
Swell
Dir  Spd
kts
Gust
kts
hPa Trend Height
m
Period
s
Dir
25/11:30pm 19.3 SE 7 11 1015.4 - 0.0 - - - - - - -
25/11:00pm 18.7 SSE 7 10 1015.4 - 0.0 - - - - - - -
25/10:30pm 16.3 SSE 7 9 1015.6 - 0.0 - - - - - - -
25/10:00pm 16.7 SSE 6 9 1015.6 - 0.0 - - - - - - -
25/09:30pm 17.3 SSE 7 8 1015.7 - 0.0 - - - - - - -
25/09:00pm 17.8 SSE 7 9 1015.7 - 0.0 - - - - - - -
25/08:30pm 18.3 SSE 7 8 1015.7 - 0.0 - - - - - - -
25/08:00pm 19.3 SSE 7 9 1015.5 - 0.0 - - - - - - -
25/07:30pm 19.5 SSE 5 7 1015.1 - 0.0 - - - - - - -
25/07:00pm 17.0 S 4 5 1014.7 - 0.0 - - - - - - -
25/06:30pm 19.6 SE 4 6 1014.3 - 0.0 - - - - - - -
25/06:00pm 23.9 SE 4 6 1014.0 - 0.0 - - - - - - -
25/05:30pm 27.0 SE 5 11 1013.6 - 0.0 - - - - - - -
25/05:00pm 28.3 SE 7 11 1013.4 - 0.0 - - - - - - -
25/04:30pm 29.4 E 7 11 1013.2 - 0.0 - - - - - - -
25/04:00pm 29.5 ESE 7 11 1013.1 - 0.0 - - - - - - -
25/03:30pm 29.9 SE 7 11 1013.1 - 0.0 - - - - - - -

Other Formats:

Comma delimited format used in spreadsheet applications
http://www.bom.gov.au/fwo/IDW60701/IDW60701.94200.axf

JavaScript Object Notation format (JSON) in row-major order
http://www.bom.gov.au/fwo/IDW60701/IDW60701.94200.json